sensor_id;sensor_type;location;lat;lon;timestamp;pressure;altitude;pressure_sealevel;temperature;humidity
25869;BME280;13688;53.154;18.136;2023-03-22T00:02:54;100726.80;;;6.29;93.89
25869;BME280;13688;53.154;18.136;2023-03-22T00:08:17;100713.34;;;6.31;94.47
25869;BME280;13688;53.154;18.136;2023-03-22T00:13:40;100715.52;;;6.24;94.81
25869;BME280;13688;53.154;18.136;2023-03-22T00:19:03;100708.45;;;6.23;95.25
25869;BME280;13688;53.154;18.136;2023-03-22T00:24:26;100704.27;;;6.19;95.64
25869;BME280;13688;53.154;18.136;2023-03-22T00:29:51;100703.88;;;6.25;96.08
25869;BME280;13688;53.154;18.136;2023-03-22T00:35:15;100691.32;;;6.27;96.44
25869;BME280;13688;53.154;18.136;2023-03-22T00:40:38;100696.83;;;6.24;96.58
25869;BME280;13688;53.154;18.136;2023-03-22T00:46:00;100695.11;;;6.23;96.73
25869;BME280;13688;53.154;18.136;2023-03-22T00:51:23;100690.72;;;6.22;96.92
25869;BME280;13688;53.154;18.136;2023-03-22T00:56:46;100683.77;;;6.20;97.06
25869;BME280;13688;53.154;18.136;2023-03-22T01:02:11;100677.56;;;6.19;97.28
25869;BME280;13688;53.154;18.136;2023-03-22T01:07:34;100681.19;;;6.18;97.43
25869;BME280;13688;53.154;18.136;2023-03-22T01:13:03;100675.16;;;6.15;97.56
25869;BME280;13688;53.154;18.136;2023-03-22T01:18:26;100668.45;;;6.08;97.71
25869;BME280;13688;53.154;18.136;2023-03-22T01:23:49;100662.45;;;6.04;98.03
25869;BME280;13688;53.154;18.136;2023-03-22T01:29:12;100653.59;;;6.03;98.40
25869;BME280;13688;53.154;18.136;2023-03-22T01:34:34;100642.82;;;6.05;98.76
25869;BME280;13688;53.154;18.136;2023-03-22T01:39:57;100632.14;;;6.05;99.08
25869;BME280;13688;53.154;18.136;2023-03-22T01:45:32;100614.41;;;6.04;99.25
25869;BME280;13688;53.154;18.136;2023-03-22T01:51:05;100609.93;;;6.05;99.46
25869;BME280;13688;53.154;18.136;2023-03-22T01:56:35;100606.31;;;6.06;99.66
25869;BME280;13688;53.154;18.136;2023-03-22T02:01:57;100597.28;;;6.08;99.77
25869;BME280;13688;53.154;18.136;2023-03-22T02:07:22;100592.80;;;6.09;99.67
25869;BME280;13688;53.154;18.136;2023-03-22T02:13:16;100600.61;;;6.12;99.54
25869;BME280;13688;53.154;18.136;2023-03-22T02:18:57;100590.78;;;6.12;99.27
25869;BME280;13688;53.154;18.136;2023-03-22T02:48:10;100583.17;;;6.20;97.22
25869;BME280;13688;53.154;18.136;2023-03-22T02:53:55;100579.91;;;6.15;97.36
25869;BME280;13688;53.154;18.136;2023-03-22T02:59:35;100580.30;;;6.23;98.44
25869;BME280;13688;53.154;18.136;2023-03-22T03:04:59;100572.95;;;6.13;98.22
25869;BME280;13688;53.154;18.136;2023-03-22T03:10:23;100569.43;;;6.12;98.58
25869;BME280;13688;53.154;18.136;2023-03-22T03:15:50;100574.57;;;6.15;98.86
25869;BME280;13688;53.154;18.136;2023-03-22T03:27:22;100572.49;;;6.20;98.75
25869;BME280;13688;53.154;18.136;2023-03-22T03:32:59;100571.44;;;6.23;98.33
25869;BME280;13688;53.154;18.136;2023-03-22T03:38:28;100565.23;;;6.22;98.01
25869;BME280;13688;53.154;18.136;2023-03-22T03:43:53;100563.73;;;6.18;98.10
25869;BME280;13688;53.154;18.136;2023-03-22T03:49:17;100562.08;;;6.16;98.65
25869;BME280;13688;53.154;18.136;2023-03-22T03:54:41;100562.28;;;6.13;99.50
25869;BME280;13688;53.154;18.136;2023-03-22T04:00:06;100557.05;;;6.11;100.00
25869;BME280;13688;53.154;18.136;2023-03-22T04:05:29;100547.42;;;6.09;100.00
25869;BME280;13688;53.154;18.136;2023-03-22T04:10:53;100546.63;;;6.07;100.00
25869;BME280;13688;53.154;18.136;2023-03-22T04:16:15;100543.11;;;6.06;100.00
25869;BME280;13688;53.154;18.136;2023-03-22T04:21:37;100544.06;;;6.05;100.00
25869;BME280;13688;53.154;18.136;2023-03-22T04:27:01;100531.58;;;6.06;100.00
25869;BME280;13688;53.154;18.136;2023-03-22T04:32:24;100532.43;;;6.06;100.00
25869;BME280;13688;53.154;18.136;2023-03-22T04:37:46;100527.88;;;6.08;100.00
25869;BME280;13688;53.154;18.136;2023-03-22T04:43:10;100529.86;;;6.05;100.00
25869;BME280;13688;53.154;18.136;2023-03-22T04:48:32;100527.30;;;6.03;100.00
25869;BME280;13688;53.154;18.136;2023-03-22T04:53:55;100520.34;;;6.00;100.00
25869;BME280;13688;53.154;18.136;2023-03-22T04:59:17;100511.48;;;6.00;100.00
25869;BME280;13688;53.154;18.136;2023-03-22T05:04:40;100516.72;;;6.01;100.00
25869;BME280;13688;53.154;18.136;2023-03-22T05:10:02;100510.63;;;5.99;100.00
25869;BME280;13688;53.154;18.136;2023-03-22T05:15:25;100504.33;;;6.00;100.00
25869;BME280;13688;53.154;18.136;2023-03-22T05:20:48;100500.80;;;6.00;100.00
25869;BME280;13688;53.154;18.136;2023-03-22T05:26:22;100498.22;;;6.13;100.00
25869;BME280;13688;53.154;18.136;2023-03-22T05:31:46;100494.41;;;6.02;100.00
25869;BME280;13688;53.154;18.136;2023-03-22T05:37:09;100493.19;;;6.08;100.00
25869;BME280;13688;53.154;18.136;2023-03-22T05:42:31;100494.69;;;6.12;100.00
25869;BME280;13688;53.154;18.136;2023-03-22T05:47:54;100500.03;;;6.12;100.00
25869;BME280;13688;53.154;18.136;2023-03-22T05:53:17;100498.22;;;6.13;100.00
25869;BME280;13688;53.154;18.136;2023-03-22T05:58:41;100497.16;;;6.15;100.00
25869;BME280;13688;53.154;18.136;2023-03-22T06:04:04;100497.73;;;6.20;100.00
25869;BME280;13688;53.154;18.136;2023-03-22T06:09:27;100487.61;;;6.25;100.00
25869;BME280;13688;53.154;18.136;2023-03-22T06:14:50;100496.30;;;6.29;100.00
25869;BME280;13688;53.154;18.136;2023-03-22T06:20:13;100492.47;;;6.33;100.00
25869;BME280;13688;53.154;18.136;2023-03-22T06:25:35;100501.13;;;6.37;100.00
25869;BME280;13688;53.154;18.136;2023-03-22T06:31:04;100493.70;;;6.42;100.00
25869;BME280;13688;53.154;18.136;2023-03-22T06:36:22;100498.66;;;6.48;100.00
25869;BME280;13688;53.154;18.136;2023-03-22T06:41:45;100499.78;;;6.58;100.00
25869;BME280;13688;53.154;18.136;2023-03-22T06:47:08;100498.40;;;6.65;100.00
25869;BME280;13688;53.154;18.136;2023-03-22T06:52:30;100498.02;;;6.71;100.00
25869;BME280;13688;53.154;18.136;2023-03-22T06:57:54;100493.78;;;6.81;100.00
25869;BME280;13688;53.154;18.136;2023-03-22T07:03:17;100494.13;;;6.89;100.00
25869;BME280;13688;53.154;18.136;2023-03-22T07:08:40;100507.42;;;7.04;100.00
25869;BME280;13688;53.154;18.136;2023-03-22T07:14:02;100493.69;;;7.23;100.00
25869;BME280;13688;53.154;18.136;2023-03-22T07:19:24;100500.80;;;7.36;100.00
25869;BME280;13688;53.154;18.136;2023-03-22T07:24:50;100494.59;;;7.49;100.00
25869;BME280;13688;53.154;18.136;2023-03-22T07:30:14;100488.50;;;7.59;100.00
25869;BME280;13688;53.154;18.136;2023-03-22T07:35:36;100487.65;;;7.71;100.00
25869;BME280;13688;53.154;18.136;2023-03-22T07:41:00;100493.44;;;7.78;100.00
25869;BME280;13688;53.154;18.136;2023-03-22T07:46:23;100494.41;;;7.77;100.00
25869;BME280;13688;53.154;18.136;2023-03-22T07:51:45;100490.02;;;7.76;100.00
25869;BME280;13688;53.154;18.136;2023-03-22T07:57:07;100486.93;;;7.82;100.00
25869;BME280;13688;53.154;18.136;2023-03-22T08:02:30;100488.64;;;7.83;100.00
25869;BME280;13688;53.154;18.136;2023-03-22T08:07:54;100497.41;;;7.85;100.00
25869;BME280;13688;53.154;18.136;2023-03-22T08:13:17;100485.84;;;7.85;100.00
25869;BME280;13688;53.154;18.136;2023-03-22T08:18:39;100489.59;;;7.95;100.00
25869;BME280;13688;53.154;18.136;2023-03-22T08:24:02;100486.91;;;7.95;100.00
25869;BME280;13688;53.154;18.136;2023-03-22T08:29:24;100485.72;;;7.99;100.00
25869;BME280;13688;53.154;18.136;2023-03-22T08:34:47;100491.93;;;7.99;100.00
25869;BME280;13688;53.154;18.136;2023-03-22T08:40:10;100503.07;;;8.06;100.00
25869;BME280;13688;53.154;18.136;2023-03-22T08:45:33;100511.22;;;8.04;100.00
25869;BME280;13688;53.154;18.136;2023-03-22T08:50:56;100504.78;;;8.07;100.00
25869;BME280;13688;53.154;18.136;2023-03-22T08:56:19;100507.69;;;8.04;100.00
25869;BME280;13688;53.154;18.136;2023-03-22T09:01:43;100504.66;;;8.09;100.00
25869;BME280;13688;53.154;18.136;2023-03-22T09:07:06;100505.44;;;8.11;100.00
25869;BME280;13688;53.154;18.136;2023-03-22T09:12:28;100504.13;;;8.16;100.00
25869;BME280;13688;53.154;18.136;2023-03-22T09:17:51;100491.59;;;8.42;100.00
25869;BME280;13688;53.154;18.136;2023-03-22T09:23:14;100493.91;;;8.47;100.00
25869;BME280;13688;53.154;18.136;2023-03-22T09:28:36;100483.63;;;8.53;100.00
25869;BME280;13688;53.154;18.136;2023-03-22T09:33:59;100475.64;;;8.65;100.00
25869;BME280;13688;53.154;18.136;2023-03-22T09:39:21;100468.58;;;8.64;100.00
25869;BME280;13688;53.154;18.136;2023-03-22T09:44:47;100470.16;;;8.66;100.00
25869;BME280;13688;53.154;18.136;2023-03-22T09:50:25;100482.33;;;8.83;100.00
25869;BME280;13688;53.154;18.136;2023-03-22T09:55:53;100471.03;;;8.91;100.00
25869;BME280;13688;53.154;18.136;2023-03-22T10:01:55;100465.64;;;9.14;100.00
25869;BME280;13688;53.154;18.136;2023-03-22T10:13:56;100448.41;;;9.41;97.79
25869;BME280;13688;53.154;18.136;2023-03-22T10:19:37;100458.47;;;9.84;93.53
25869;BME280;13688;53.154;18.136;2023-03-22T10:25:05;100456.64;;;9.84;90.03
25869;BME280;13688;53.154;18.136;2023-03-22T10:30:33;100448.23;;;9.66;88.58
25869;BME280;13688;53.154;18.136;2023-03-22T10:35:56;100457.72;;;9.59;88.44
25869;BME280;13688;53.154;18.136;2023-03-22T10:41:20;100459.16;;;9.52;88.80
25869;BME280;13688;53.154;18.136;2023-03-22T10:46:45;100452.80;;;9.42;88.94
25869;BME280;13688;53.154;18.136;2023-03-22T10:58:11;100459.18;;;9.63;89.03
25869;BME280;13688;53.154;18.136;2023-03-22T11:03:45;100451.89;;;10.10;88.22
25869;BME280;13688;53.154;18.136;2023-03-22T11:09:19;100449.47;;;10.84;85.80
25869;BME280;13688;53.154;18.136;2023-03-22T11:14:43;100435.71;;;10.66;82.99
25869;BME280;13688;53.154;18.136;2023-03-22T11:20:12;100431.36;;;10.54;82.08
25869;BME280;13688;53.154;18.136;2023-03-22T11:25:34;100424.11;;;10.66;81.36
25869;BME280;13688;53.154;18.136;2023-03-22T11:36:35;100422.23;;;11.30;78.45
25869;BME280;13688;53.154;18.136;2023-03-22T11:42:04;100435.02;;;11.17;76.61
25869;BME280;13688;53.154;18.136;2023-03-22T11:47:32;100412.19;;;11.32;76.49
25869;BME280;13688;53.154;18.136;2023-03-22T11:52:55;100399.64;;;11.42;75.94
25869;BME280;13688;53.154;18.136;2023-03-22T11:58:42;100401.07;;;11.46;74.79
25869;BME280;13688;53.154;18.136;2023-03-22T12:03:55;100393.92;;;11.36;74.31
25869;BME280;13688;53.154;18.136;2023-03-22T12:20:42;100389.30;;;11.68;74.49
25869;BME280;13688;53.154;18.136;2023-03-22T12:26:26;100390.66;;;11.84;74.16
25869;BME280;13688;53.154;18.136;2023-03-22T12:31:56;100396.41;;;12.00;72.98
25869;BME280;13688;53.154;18.136;2023-03-22T12:37:26;100391.41;;;11.95;72.48
25869;BME280;13688;53.154;18.136;2023-03-22T12:43:14;100390.28;;;11.88;72.59
25869;BME280;13688;53.154;18.136;2023-03-22T12:49:02;100394.00;;;11.97;72.67
25869;BME280;13688;53.154;18.136;2023-03-22T12:54:30;100383.97;;;12.09;71.97
25869;BME280;13688;53.154;18.136;2023-03-22T12:59:56;100377.36;;;12.42;71.59
25869;BME280;13688;53.154;18.136;2023-03-22T13:05:26;100374.81;;;12.40;70.08
25869;BME280;13688;53.154;18.136;2023-03-22T13:10:58;100364.03;;;12.50;69.37
25869;BME280;13688;53.154;18.136;2023-03-22T13:16:23;100367.18;;;12.55;68.96
25869;BME280;13688;53.154;18.136;2023-03-22T13:33:42;100336.37;;;12.77;68.77
25869;BME280;13688;53.154;18.136;2023-03-22T13:39:08;100311.64;;;12.81;68.75
25869;BME280;13688;53.154;18.136;2023-03-22T13:44:38;100308.39;;;12.78;67.88
25869;BME280;13688;53.154;18.136;2023-03-22T13:50:14;100297.30;;;12.81;67.80
25869;BME280;13688;53.154;18.136;2023-03-22T14:01:28;100283.53;;;12.94;67.90
25869;BME280;13688;53.154;18.136;2023-03-22T14:07:27;100284.80;;;12.89;67.76
25869;BME280;13688;53.154;18.136;2023-03-22T14:18:37;100277.71;;;13.45;64.66
25869;BME280;13688;53.154;18.136;2023-03-22T14:24:01;100265.25;;;13.34;64.92
25869;BME280;13688;53.154;18.136;2023-03-22T14:29:41;100270.11;;;13.21;65.24
25869;BME280;13688;53.154;18.136;2023-03-22T14:35:07;100274.05;;;13.36;64.60
25869;BME280;13688;53.154;18.136;2023-03-22T14:40:50;100268.65;;;13.36;63.90
25869;BME280;13688;53.154;18.136;2023-03-22T14:46:31;100280.93;;;13.02;65.25
25869;BME280;13688;53.154;18.136;2023-03-22T14:51:53;100265.76;;;12.91;66.84
25869;BME280;13688;53.154;18.136;2023-03-22T14:57:17;100260.40;;;12.72;67.87
25869;BME280;13688;53.154;18.136;2023-03-22T15:02:47;100261.09;;;12.74;68.39
25869;BME280;13688;53.154;18.136;2023-03-22T15:13:40;100247.61;;;12.74;68.67
25869;BME280;13688;53.154;18.136;2023-03-22T15:19:05;100246.66;;;12.65;68.91
25869;BME280;13688;53.154;18.136;2023-03-22T15:24:36;100248.50;;;12.65;68.94
25869;BME280;13688;53.154;18.136;2023-03-22T15:30:09;100241.52;;;12.72;68.84
25869;BME280;13688;53.154;18.136;2023-03-22T15:35:32;100243.66;;;12.68;68.76
25869;BME280;13688;53.154;18.136;2023-03-22T15:40:57;100234.42;;;12.71;68.78
25869;BME280;13688;53.154;18.136;2023-03-22T15:46:22;100224.59;;;12.89;68.08
25869;BME280;13688;53.154;18.136;2023-03-22T15:51:44;100223.89;;;12.87;67.89
25869;BME280;13688;53.154;18.136;2023-03-22T15:57:17;100236.41;;;12.78;67.88
25869;BME280;13688;53.154;18.136;2023-03-22T16:03:13;100233.42;;;12.72;68.18
25869;BME280;13688;53.154;18.136;2023-03-22T16:08:34;100237.42;;;12.68;68.58
25869;BME280;13688;53.154;18.136;2023-03-22T16:13:56;100230.59;;;12.64;68.76
25869;BME280;13688;53.154;18.136;2023-03-22T16:19:29;100225.91;;;12.75;67.93
25869;BME280;13688;53.154;18.136;2023-03-22T16:24:50;100226.80;;;12.56;68.57
25869;BME280;13688;53.154;18.136;2023-03-22T16:30:16;100234.45;;;12.51;68.84
25869;BME280;13688;53.154;18.136;2023-03-22T16:35:37;100233.75;;;12.40;69.25
25869;BME280;13688;53.154;18.136;2023-03-22T16:41:00;100226.81;;;12.27;69.58
25869;BME280;13688;53.154;18.136;2023-03-22T16:46:24;100231.47;;;12.16;70.00
25869;BME280;13688;53.154;18.136;2023-03-22T16:51:45;100232.45;;;12.05;70.36
25869;BME280;13688;53.154;18.136;2023-03-22T16:57:10;100236.84;;;11.96;70.53
25869;BME280;13688;53.154;18.136;2023-03-22T17:02:39;100237.27;;;11.82;71.16
25869;BME280;13688;53.154;18.136;2023-03-22T17:08:02;100230.54;;;11.76;71.89
25869;BME280;13688;53.154;18.136;2023-03-22T17:13:32;100228.11;;;11.64;73.03
25869;BME280;13688;53.154;18.136;2023-03-22T17:18:53;100228.11;;;11.64;73.03
25869;BME280;13688;53.154;18.136;2023-03-22T17:24:14;100217.46;;;11.53;73.58
25869;BME280;13688;53.154;18.136;2023-03-22T17:29:36;100220.98;;;11.43;74.31
25869;BME280;13688;53.154;18.136;2023-03-22T17:34:57;100214.56;;;11.35;74.97
25869;BME280;13688;53.154;18.136;2023-03-22T17:40:21;100215.53;;;11.24;75.48
25869;BME280;13688;53.154;18.136;2023-03-22T17:45:43;100213.08;;;11.11;76.07
25869;BME280;13688;53.154;18.136;2023-03-22T17:51:05;100215.72;;;11.02;76.70
25869;BME280;13688;53.154;18.136;2023-03-22T17:56:27;100219.59;;;10.88;77.19
25869;BME280;13688;53.154;18.136;2023-03-22T18:01:48;100225.58;;;10.71;77.79
25869;BME280;13688;53.154;18.136;2023-03-22T18:07:10;100225.79;;;10.58;78.51
25869;BME280;13688;53.154;18.136;2023-03-22T18:12:36;100215.31;;;10.55;79.03
25869;BME280;13688;53.154;18.136;2023-03-22T18:17:57;100217.52;;;10.50;79.29
25869;BME280;13688;53.154;18.136;2023-03-22T18:23:18;100217.45;;;10.40;79.46
25869;BME280;13688;53.154;18.136;2023-03-22T18:28:40;100220.81;;;10.21;79.89
25869;BME280;13688;53.154;18.136;2023-03-22T18:34:01;100218.05;;;10.12;80.62
25869;BME280;13688;53.154;18.136;2023-03-22T18:39:30;100215.76;;;10.07;81.14
25869;BME280;13688;53.154;18.136;2023-03-22T18:44:52;100213.20;;;10.06;81.51
25869;BME280;13688;53.154;18.136;2023-03-22T18:50:14;100215.22;;;10.13;81.49
25869;BME280;13688;53.154;18.136;2023-03-22T18:55:38;100212.91;;;9.88;81.32
25869;BME280;13688;53.154;18.136;2023-03-22T19:01:25;100218.18;;;9.78;82.04
25869;BME280;13688;53.154;18.136;2023-03-22T19:06:47;100213.27;;;9.83;82.87
25869;BME280;13688;53.154;18.136;2023-03-22T19:17:56;100200.14;;;9.69;82.55
25869;BME280;13688;53.154;18.136;2023-03-22T19:23:19;100200.58;;;9.31;82.76
25869;BME280;13688;53.154;18.136;2023-03-22T19:28:41;100189.37;;;9.14;83.90
25869;BME280;13688;53.154;18.136;2023-03-22T19:34:03;100188.78;;;9.00;85.08
25869;BME280;13688;53.154;18.136;2023-03-22T19:39:25;100186.45;;;8.84;85.97
25869;BME280;13688;53.154;18.136;2023-03-22T19:44:46;100187.17;;;8.64;86.96
25869;BME280;13688;53.154;18.136;2023-03-22T19:50:09;100190.31;;;8.57;88.10
25869;BME280;13688;53.154;18.136;2023-03-22T19:55:31;100177.03;;;8.45;88.97
25869;BME280;13688;53.154;18.136;2023-03-22T20:00:55;100185.02;;;8.33;89.82
25869;BME280;13688;53.154;18.136;2023-03-22T20:06:20;100185.69;;;8.13;90.42
25869;BME280;13688;53.154;18.136;2023-03-22T20:11:41;100187.81;;;7.97;91.19
25869;BME280;13688;53.154;18.136;2023-03-22T20:17:02;100186.11;;;7.96;92.41
25869;BME280;13688;53.154;18.136;2023-03-22T20:22:25;100185.83;;;7.88;93.39
25869;BME280;13688;53.154;18.136;2023-03-22T20:27:46;100194.33;;;7.82;94.39
25869;BME280;13688;53.154;18.136;2023-03-22T20:33:07;100185.90;;;7.75;95.34
25869;BME280;13688;53.154;18.136;2023-03-22T20:38:29;100180.88;;;7.70;96.24
25869;BME280;13688;53.154;18.136;2023-03-22T20:43:55;100183.17;;;7.64;97.00
25869;BME280;13688;53.154;18.136;2023-03-22T20:49:16;100179.73;;;7.62;97.88
25869;BME280;13688;53.154;18.136;2023-03-22T20:54:37;100169.50;;;7.56;98.62
25869;BME280;13688;53.154;18.136;2023-03-22T20:59:58;100175.83;;;7.55;99.43
25869;BME280;13688;53.154;18.136;2023-03-22T21:05:22;100160.62;;;7.55;100.00
25869;BME280;13688;53.154;18.136;2023-03-22T21:10:44;100165.68;;;7.47;100.00
25869;BME280;13688;53.154;18.136;2023-03-22T21:16:09;100158.63;;;7.46;100.00
25869;BME280;13688;53.154;18.136;2023-03-22T21:21:31;100152.13;;;7.37;100.00
25869;BME280;13688;53.154;18.136;2023-03-22T21:26:53;100150.72;;;7.44;100.00
25869;BME280;13688;53.154;18.136;2023-03-22T21:32:14;100154.63;;;7.52;100.00
25869;BME280;13688;53.154;18.136;2023-03-22T21:37:36;100152.36;;;7.58;100.00
25869;BME280;13688;53.154;18.136;2023-03-22T21:42:58;100144.01;;;7.63;100.00
25869;BME280;13688;53.154;18.136;2023-03-22T21:48:19;100145.35;;;7.68;100.00
25869;BME280;13688;53.154;18.136;2023-03-22T21:53:44;100146.20;;;7.69;100.00
25869;BME280;13688;53.154;18.136;2023-03-22T21:59:07;100136.23;;;7.71;100.00
25869;BME280;13688;53.154;18.136;2023-03-22T22:04:29;100134.41;;;7.71;100.00
25869;BME280;13688;53.154;18.136;2023-03-22T22:09:50;100139.88;;;7.70;100.00
25869;BME280;13688;53.154;18.136;2023-03-22T22:15:14;100134.53;;;7.70;100.00
25869;BME280;13688;53.154;18.136;2023-03-22T22:20:36;100130.15;;;7.69;100.00
25869;BME280;13688;53.154;18.136;2023-03-22T22:25:59;100123.34;;;7.65;100.00
25869;BME280;13688;53.154;18.136;2023-03-22T22:31:23;100123.09;;;7.68;100.00
25869;BME280;13688;53.154;18.136;2023-03-22T22:36:44;100128.40;;;7.57;100.00
25869;BME280;13688;53.154;18.136;2023-03-22T22:42:05;100132.90;;;7.56;100.00
25869;BME280;13688;53.154;18.136;2023-03-22T22:47:27;100131.13;;;7.68;100.00
25869;BME280;13688;53.154;18.136;2023-03-22T22:52:48;100125.53;;;7.71;100.00
25869;BME280;13688;53.154;18.136;2023-03-22T22:58:10;100127.43;;;7.58;100.00
25869;BME280;13688;53.154;18.136;2023-03-22T23:03:32;100136.14;;;7.49;100.00
25869;BME280;13688;53.154;18.136;2023-03-22T23:08:57;100133.91;;;7.42;99.77
25869;BME280;13688;53.154;18.136;2023-03-22T23:14:19;100129.06;;;7.71;100.00
25869;BME280;13688;53.154;18.136;2023-03-22T23:19:41;100126.09;;;7.87;100.00
25869;BME280;13688;53.154;18.136;2023-03-22T23:25:07;100124.78;;;7.93;98.84
25869;BME280;13688;53.154;18.136;2023-03-22T23:30:28;100123.56;;;7.97;97.28
25869;BME280;13688;53.154;18.136;2023-03-22T23:35:50;100114.67;;;7.96;95.88
25869;BME280;13688;53.154;18.136;2023-03-22T23:41:11;100114.80;;;7.95;94.84
25869;BME280;13688;53.154;18.136;2023-03-22T23:46:33;100123.08;;;7.92;94.24
25869;BME280;13688;53.154;18.136;2023-03-22T23:51:55;100119.03;;;7.86;94.00
25869;BME280;13688;53.154;18.136;2023-03-22T23:57:16;100126.09;;;7.87;93.94
